createdAt,value
2023-04-10T00:00:53.202Z,100.00
2023-04-10T00:03:22.388Z,100.00
2023-04-10T00:05:50.168Z,100.00
2023-04-10T00:08:25.615Z,100.00
2023-04-10T00:10:54.469Z,100.00
2023-04-10T00:13:22.112Z,100.00
2023-04-10T00:15:50.184Z,100.00
2023-04-10T00:18:17.883Z,100.00
2023-04-10T00:20:46.865Z,100.00
2023-04-10T00:23:14.581Z,100.00
2023-04-10T00:25:42.232Z,100.00
2023-04-10T00:28:09.896Z,100.00
2023-04-10T00:30:37.609Z,100.00
2023-04-10T00:33:05.603Z,100.00
2023-04-10T00:35:33.477Z,100.00
2023-04-10T00:38:02.501Z,100.00
2023-04-10T00:40:30.736Z,100.00
2023-04-10T00:42:58.473Z,100.00
2023-04-10T00:45:26.442Z,100.00
2023-04-10T00:47:54.398Z,100.00
2023-04-10T00:50:22.457Z,100.00
2023-04-10T00:52:51.870Z,100.00
2023-04-10T00:55:21.199Z,100.00
2023-04-10T00:57:49.022Z,100.00
2023-04-10T01:00:17.258Z,100.00
2023-04-10T01:02:45.167Z,100.00
2023-04-10T01:05:13.699Z,100.00
2023-04-10T01:07:50.381Z,100.00
2023-04-10T01:10:21.695Z,100.00
2023-04-10T01:12:57.136Z,100.00
2023-04-10T01:15:26.689Z,100.00
2023-04-10T01:17:57.516Z,100.00
2023-04-10T01:20:26.295Z,100.00
2023-04-10T01:23:07.913Z,100.00
2023-04-10T01:25:44.900Z,100.00
2023-04-10T01:28:22.893Z,100.00
2023-04-10T01:30:53.091Z,100.00
2023-04-10T01:33:22.551Z,100.00
2023-04-10T01:35:53.568Z,100.00
2023-04-10T01:38:22.642Z,100.00
2023-04-10T01:40:51.997Z,100.00
2023-04-10T01:43:21.543Z,100.00
2023-04-10T01:45:51.208Z,100.00
2023-04-10T01:48:20.628Z,100.00
2023-04-10T01:50:48.521Z,100.00
2023-04-10T01:53:16.966Z,100.00
2023-04-10T01:55:45.041Z,100.00
2023-04-10T01:58:13.131Z,100.00
2023-04-10T02:00:41.725Z,100.00
2023-04-10T02:03:09.867Z,100.00
2023-04-10T02:05:43.346Z,100.00
2023-04-10T02:08:13.623Z,100.00
2023-04-10T02:10:45.919Z,100.00
2023-04-10T02:13:15.746Z,100.00
2023-04-10T02:15:44.850Z,100.00
2023-04-10T02:18:12.887Z,100.00
2023-04-10T02:20:42.585Z,100.00
2023-04-10T02:23:10.327Z,100.00
2023-04-10T02:25:37.927Z,100.00
2023-04-10T02:28:06.166Z,100.00
2023-04-10T02:30:34.093Z,100.00
2023-04-10T02:33:01.877Z,100.00
2023-04-10T02:35:29.777Z,100.00
2023-04-10T02:37:58.819Z,100.00
2023-04-10T02:40:26.506Z,100.00
2023-04-10T02:42:54.150Z,100.00
2023-04-10T02:45:21.871Z,100.00
2023-04-10T02:47:49.610Z,100.00
2023-04-10T02:50:18.211Z,100.00
2023-04-10T02:52:45.915Z,100.00
2023-04-10T02:55:14.992Z,100.00
2023-04-10T02:57:42.932Z,100.00
2023-04-10T03:00:11.415Z,100.00
2023-04-10T03:02:39.278Z,100.00
2023-04-10T03:05:08.788Z,100.00
2023-04-10T03:07:36.582Z,100.00
2023-04-10T03:10:04.291Z,100.00
2023-04-10T03:12:33.593Z,100.00
2023-04-10T03:15:01.269Z,100.00
2023-04-10T03:17:28.997Z,100.00
2023-04-10T03:19:56.860Z,100.00
2023-04-10T03:22:24.615Z,100.00
2023-04-10T03:24:52.703Z,100.00
2023-04-10T03:27:20.728Z,100.00
2023-04-10T03:29:49.796Z,100.00
2023-04-10T03:32:17.472Z,100.00
2023-04-10T03:34:45.207Z,100.00
2023-04-10T03:37:12.902Z,100.00
2023-04-10T03:39:40.500Z,100.00
2023-04-10T03:42:08.173Z,100.00
2023-04-10T03:44:35.908Z,100.00
2023-04-10T03:47:04.946Z,100.00
2023-04-10T03:49:32.737Z,100.00
2023-04-10T03:52:00.388Z,100.00
2023-04-10T03:54:28.056Z,100.00
2023-04-10T03:56:56.639Z,100.00
2023-04-10T03:59:28.431Z,100.00
2023-04-10T04:02:07.852Z,100.00
2023-04-10T04:04:35.754Z,100.00
2023-04-10T04:07:03.621Z,100.00
2023-04-10T04:09:31.295Z,100.00
2023-04-10T04:11:58.969Z,100.00
2023-04-10T04:14:26.614Z,100.00
2023-04-10T04:16:54.298Z,100.00
2023-04-10T04:19:23.422Z,100.00
2023-04-10T04:21:51.061Z,100.00
2023-04-10T04:24:18.715Z,100.00
2023-04-10T04:26:46.636Z,100.00
2023-04-10T04:29:14.341Z,100.00
2023-04-10T04:31:42.048Z,100.00
2023-04-10T04:34:09.908Z,100.00
2023-04-10T04:36:39.876Z,100.00
2023-04-10T04:39:07.494Z,100.00
2023-04-10T04:41:35.189Z,100.00
2023-04-10T04:44:03.145Z,100.00
2023-04-10T04:46:30.899Z,100.00
2023-04-10T04:48:58.620Z,100.00
2023-04-10T04:51:27.159Z,100.00
2023-04-10T04:53:56.402Z,100.00
2023-04-10T04:56:24.267Z,100.00
2023-04-10T04:58:52.073Z,100.00
2023-04-10T05:01:20.081Z,100.00
2023-04-10T05:03:47.838Z,100.00
2023-04-10T05:06:15.639Z,100.00
2023-04-10T05:08:43.244Z,100.00
2023-04-10T05:11:12.312Z,100.00
2023-04-10T05:13:40.018Z,100.00
2023-04-10T05:16:08.231Z,100.00
2023-04-10T05:18:36.418Z,100.00
2023-04-10T05:21:04.206Z,100.00
2023-04-10T05:23:31.920Z,100.00
2023-04-10T05:25:59.531Z,100.00
2023-04-10T05:28:28.585Z,100.00
2023-04-10T05:30:56.343Z,100.00
2023-04-10T05:33:24.018Z,100.00
2023-04-10T05:35:53.401Z,100.00
2023-04-10T05:38:21.109Z,100.00
2023-04-10T05:40:49.115Z,100.00
2023-04-10T05:43:16.841Z,100.00
2023-04-10T05:45:46.378Z,100.00
2023-04-10T05:48:14.157Z,100.00
2023-04-10T05:50:41.820Z,100.00
2023-04-10T05:53:12.229Z,100.00
2023-04-10T05:55:40.012Z,100.00
2023-04-10T05:58:07.763Z,100.00
2023-04-10T06:00:35.500Z,100.00
2023-04-10T06:03:04.604Z,100.00
2023-04-10T06:05:32.382Z,100.00
2023-04-10T06:08:00.124Z,100.00
2023-04-10T06:10:29.553Z,100.00
2023-04-10T06:12:57.248Z,100.00
2023-04-10T06:15:24.981Z,100.00
2023-04-10T06:17:54.000Z,100.00
2023-04-10T06:20:23.283Z,100.00
2023-04-10T06:22:50.947Z,100.00
2023-04-10T06:25:18.750Z,100.00
2023-04-10T06:27:46.606Z,100.00
2023-04-10T06:30:14.332Z,100.00
2023-04-10T06:32:42.035Z,100.00
2023-04-10T06:35:10.470Z,100.00
2023-04-10T06:37:39.586Z,100.00
2023-04-10T06:40:08.821Z,100.00
2023-04-10T06:42:36.920Z,100.00
2023-04-10T06:45:05.251Z,100.00
2023-04-10T06:47:33.136Z,100.00
2023-04-10T06:50:00.847Z,100.00
2023-04-10T06:52:28.589Z,100.00
2023-04-10T06:54:57.561Z,100.00
2023-04-10T06:57:25.335Z,100.00
2023-04-10T06:59:53.019Z,100.00
2023-04-10T07:02:20.896Z,100.00
2023-04-10T07:04:48.687Z,100.00
2023-04-10T07:07:16.515Z,100.00
2023-04-10T07:09:44.195Z,100.00
2023-04-10T07:12:13.342Z,100.00
2023-04-10T07:14:41.342Z,100.00
2023-04-10T07:17:09.252Z,100.00
2023-04-10T07:19:38.144Z,100.00
2023-04-10T07:22:05.899Z,100.00
2023-04-10T07:24:33.615Z,100.00
2023-04-10T07:27:01.978Z,100.00
2023-04-10T07:29:31.313Z,100.00
2023-04-10T07:31:59.145Z,100.00
2023-04-10T07:34:26.969Z,100.00
2023-04-10T07:36:54.633Z,100.00
2023-04-10T07:39:22.304Z,100.00
2023-04-10T07:41:49.998Z,100.00
2023-04-10T07:44:17.671Z,100.00
2023-04-10T07:46:46.667Z,100.00
2023-04-10T07:49:14.330Z,100.00
2023-04-10T07:51:41.986Z,100.00
2023-04-10T07:54:09.645Z,100.00
2023-04-10T07:56:37.325Z,100.00
2023-04-10T07:59:04.940Z,100.00
2023-04-10T08:01:33.375Z,100.00
2023-04-10T08:04:05.565Z,100.00
2023-04-10T08:06:33.808Z,100.00
2023-04-10T08:09:02.116Z,100.00
2023-04-10T08:11:30.514Z,100.00
2023-04-10T08:14:01.556Z,100.00
2023-04-10T08:16:30.200Z,100.00
2023-04-10T08:18:58.596Z,100.00
2023-04-10T08:21:28.333Z,100.00
2023-04-10T08:23:56.816Z,100.00
2023-04-10T08:26:24.664Z,100.00
2023-04-10T08:28:53.614Z,100.00
2023-04-10T08:31:22.039Z,100.00
2023-04-10T08:33:49.816Z,100.00
2023-04-10T08:36:19.863Z,100.00
2023-04-10T08:38:49.567Z,97.27
2023-04-10T08:41:17.801Z,97.69
2023-04-10T08:43:46.347Z,95.90
2023-04-10T08:46:14.614Z,94.30
2023-04-10T08:48:46.936Z,93.67
2023-04-10T08:51:20.162Z,92.62
2023-04-10T08:53:52.525Z,91.56
2023-04-10T08:56:20.643Z,90.01
2023-04-10T08:58:48.417Z,91.02
2023-04-10T09:01:16.370Z,91.24
2023-04-10T09:03:44.244Z,90.15
2023-04-10T09:06:12.151Z,88.45
2023-04-10T09:08:39.772Z,89.15
2023-04-10T09:11:09.071Z,87.63
2023-04-10T09:13:37.978Z,89.31
2023-04-10T09:16:06.274Z,90.18
2023-04-10T09:18:44.181Z,89.37
2023-04-10T09:21:12.625Z,89.42
2023-04-10T09:23:40.324Z,88.45
2023-04-10T09:29:02.696Z,92.54
2023-04-10T09:31:31.867Z,91.66
2023-04-10T09:34:10.072Z,90.63
2023-04-10T09:36:38.309Z,90.64
2023-04-10T09:39:06.524Z,90.82
2023-04-10T09:41:34.354Z,91.71
2023-04-10T09:44:09.947Z,90.63
2023-04-10T09:46:37.686Z,89.16
2023-04-10T09:49:07.369Z,88.51
2023-04-10T09:51:35.825Z,87.89
2023-04-10T09:54:03.836Z,88.85
2023-04-10T09:56:31.607Z,86.57
2023-04-10T09:59:00.282Z,86.81
2023-04-10T10:01:30.537Z,87.55
2023-04-10T10:04:00.325Z,88.29
2023-04-10T10:06:27.948Z,87.09
2023-04-10T10:08:56.097Z,87.83
2023-04-10T10:11:25.850Z,87.97
2023-04-10T10:13:54.111Z,87.17
2023-04-10T10:16:22.706Z,86.70
2023-04-10T10:18:56.313Z,85.80
2023-04-10T10:21:24.978Z,84.48
2023-04-10T10:23:54.845Z,86.08
2023-04-10T10:26:23.375Z,83.98
2023-04-10T10:28:52.374Z,83.38
2023-04-10T10:31:20.310Z,82.22
2023-04-10T10:33:48.852Z,82.93
2023-04-10T10:36:19.131Z,83.53
2023-04-10T10:38:52.423Z,82.75
2023-04-10T10:41:25.271Z,81.30
2023-04-10T10:43:57.003Z,81.28
2023-04-10T10:46:33.774Z,82.10
2023-04-10T10:49:02.274Z,82.25
2023-04-10T10:51:48.114Z,81.94
2023-04-10T10:54:33.580Z,83.00
2023-04-10T10:57:01.483Z,81.47
2023-04-10T10:59:47.789Z,79.23
2023-04-10T11:02:16.852Z,76.08
2023-04-10T11:04:45.090Z,75.53
2023-04-10T11:07:14.336Z,74.19
2023-04-10T11:09:49.139Z,73.01
2023-04-10T11:12:17.257Z,71.44
2023-04-10T11:14:46.218Z,70.33
2023-04-10T11:17:13.887Z,69.44
2023-04-10T11:20:01.068Z,69.70
2023-04-10T11:22:30.078Z,67.17
2023-04-10T11:24:59.005Z,68.24
2023-04-10T11:27:39.857Z,63.47
2023-04-10T11:30:22.630Z,60.49
2023-04-10T11:32:50.958Z,63.15
2023-04-10T11:35:19.967Z,64.47
2023-04-10T11:37:49.184Z,65.63
2023-04-10T11:40:17.266Z,62.30
2023-04-10T11:42:44.948Z,63.75
2023-04-10T11:45:26.374Z,63.71
2023-04-10T11:47:54.525Z,63.28
2023-04-10T11:50:22.739Z,61.72
2023-04-10T11:52:53.430Z,61.56
2023-04-10T11:55:37.793Z,63.58
2023-04-10T11:58:05.538Z,64.67
2023-04-10T12:00:33.318Z,66.37
2023-04-10T12:03:01.142Z,60.85
2023-04-10T12:05:28.927Z,63.59
2023-04-10T12:07:58.385Z,62.88
2023-04-10T12:10:26.278Z,57.72
2023-04-10T12:12:53.916Z,60.26
2023-04-10T12:15:27.921Z,60.98
2023-04-10T12:17:56.171Z,60.95
2023-04-10T12:20:27.770Z,63.22
2023-04-10T12:23:01.260Z,59.26
2023-04-10T12:25:30.515Z,61.28
2023-04-10T12:27:58.304Z,58.68
2023-04-10T12:30:26.087Z,59.38
2023-04-10T12:32:54.454Z,59.67
2023-04-10T12:35:22.168Z,58.38
2023-04-10T12:37:50.375Z,58.34
2023-04-10T12:40:18.375Z,59.96
2023-04-10T12:42:47.505Z,59.28
2023-04-10T12:45:15.703Z,61.74
2023-04-10T12:47:47.645Z,60.87
2023-04-10T12:50:16.037Z,60.28
2023-04-10T12:52:44.431Z,58.25
2023-04-10T12:55:13.110Z,59.87
2023-04-10T12:59:09.323Z,66.61
2023-04-10T13:01:38.753Z,67.67
2023-04-10T13:04:06.899Z,67.40
2023-04-10T13:06:42.941Z,65.03
2023-04-10T13:09:10.741Z,66.41
2023-04-10T13:11:38.664Z,65.81
2023-04-10T13:14:06.540Z,65.94
2023-04-10T13:16:35.942Z,64.96
2023-04-10T13:19:04.020Z,64.91
2023-04-10T13:21:31.943Z,66.39
2023-04-10T13:23:59.917Z,65.97
2023-04-10T13:26:28.088Z,66.45
2023-04-10T13:28:56.381Z,65.25
2023-04-10T13:31:24.532Z,64.71
2023-04-10T13:33:53.728Z,64.36
2023-04-10T13:36:21.890Z,64.89
2023-04-10T13:38:49.895Z,63.89
2023-04-10T13:41:17.779Z,65.80
2023-04-10T13:43:45.740Z,64.79
2023-04-10T13:46:13.742Z,65.35
2023-04-10T13:48:42.293Z,65.46
2023-04-10T13:51:11.683Z,65.66
2023-04-10T13:53:39.644Z,65.90
2023-04-10T13:56:08.735Z,65.07
2023-04-10T13:58:37.165Z,64.33
2023-04-10T14:01:05.424Z,66.16
2023-04-10T14:07:15.338Z,65.04
2023-04-10T14:09:43.216Z,65.01
2023-04-10T14:12:11.992Z,64.55
2023-04-10T14:14:39.848Z,64.07
2023-04-10T14:17:07.741Z,63.33
2023-04-10T14:19:36.615Z,63.07
2023-04-10T14:22:04.454Z,63.16
2023-04-10T14:24:33.757Z,62.27
2023-04-10T14:27:01.935Z,63.67
2023-04-10T14:32:00.891Z,62.07
2023-04-10T14:34:28.861Z,62.15
2023-04-10T14:36:56.777Z,61.55
2023-04-10T14:39:25.602Z,60.47
2023-04-10T14:41:54.869Z,60.38
2023-04-10T14:44:22.769Z,61.29
2023-04-10T14:46:50.713Z,61.99
2023-04-10T14:49:18.604Z,60.90
2023-04-10T14:51:48.620Z,61.90
2023-04-10T14:54:17.058Z,59.87
2023-04-10T14:56:45.093Z,59.68
2023-04-10T14:59:14.416Z,59.66
2023-04-10T15:01:42.370Z,59.94
2023-04-10T15:04:11.785Z,58.54
2023-04-10T15:06:39.700Z,60.17
2023-04-10T15:09:07.997Z,61.40
2023-04-10T15:11:35.943Z,60.34
2023-04-10T15:14:03.873Z,60.03
2023-04-10T15:16:33.194Z,61.26
2023-04-10T15:19:01.148Z,62.49
2023-04-10T15:21:28.969Z,62.32
2023-04-10T15:23:56.949Z,59.99
2023-04-10T15:26:25.023Z,61.90
2023-04-10T15:28:53.880Z,61.61
2023-04-10T15:31:23.372Z,62.16
2023-04-10T15:33:53.571Z,62.42
2023-04-10T15:36:21.728Z,64.18
2023-04-10T15:38:50.368Z,64.55
2023-04-10T15:41:18.419Z,64.57
2023-04-10T15:43:46.580Z,64.08
2023-04-10T15:46:15.859Z,63.76
2023-04-10T15:48:43.687Z,63.36
2023-04-10T15:51:13.100Z,64.03
2023-04-10T15:53:41.065Z,64.81
2023-04-10T15:56:09.636Z,63.88
2023-04-10T15:58:37.488Z,66.01
2023-04-10T16:01:06.298Z,64.95
2023-04-10T16:03:35.081Z,65.26
2023-04-10T16:06:03.187Z,65.10
2023-04-10T16:08:32.563Z,64.45
2023-04-10T16:11:00.433Z,64.88
2023-04-10T16:13:28.314Z,64.25
2023-04-10T16:15:56.255Z,64.47
2023-04-10T16:18:24.159Z,63.34
2023-04-10T16:20:52.137Z,65.08
2023-04-10T16:23:20.304Z,65.67
2023-04-10T16:25:49.618Z,64.29
2023-04-10T16:28:17.515Z,64.24
2023-04-10T16:30:48.870Z,64.33
2023-04-10T16:33:16.840Z,64.67
2023-04-10T16:35:44.742Z,63.19
2023-04-10T16:38:12.779Z,64.22
2023-04-10T16:40:40.668Z,64.43
2023-04-10T16:43:11.191Z,63.53
2023-04-10T16:45:39.076Z,64.79
2023-04-10T16:48:07.024Z,64.18
2023-04-10T16:50:38.121Z,65.65
2023-04-10T16:53:06.063Z,67.01
2023-04-10T16:55:33.973Z,67.48
2023-04-10T16:58:01.838Z,67.71
2023-04-10T17:00:31.289Z,67.79
2023-04-10T17:03:00.245Z,68.40
2023-04-10T17:05:34.365Z,67.89
2023-04-10T17:08:02.271Z,69.17
2023-04-10T17:10:30.239Z,69.61
2023-04-10T17:12:58.236Z,70.34
2023-04-10T17:15:26.119Z,70.10
2023-04-10T17:17:55.442Z,70.58
2023-04-10T17:20:23.285Z,71.38
2023-04-10T17:22:51.216Z,72.37
2023-04-10T17:25:19.164Z,72.91
2023-04-10T17:27:47.238Z,73.64
2023-04-10T17:30:15.679Z,74.03
2023-04-10T17:32:43.748Z,73.98
2023-04-10T17:35:13.168Z,74.22
2023-04-10T17:37:40.994Z,75.18
2023-04-10T17:40:10.036Z,75.51
2023-04-10T17:42:38.004Z,75.98
2023-04-10T17:45:06.810Z,77.00
2023-04-10T17:47:34.783Z,77.52
2023-04-10T17:50:02.769Z,78.05
2023-04-10T17:52:32.164Z,78.99
2023-04-10T17:55:01.564Z,78.88
2023-04-10T17:57:29.820Z,78.91
2023-04-10T17:59:57.772Z,78.21
2023-04-10T18:02:25.848Z,79.57
2023-04-10T18:04:53.821Z,79.38
2023-04-10T18:07:21.736Z,79.38
2023-04-10T18:09:50.976Z,79.93
2023-04-10T18:12:18.908Z,81.00
2023-04-10T18:14:48.175Z,81.95
2023-04-10T18:17:16.094Z,81.24
2023-04-10T18:19:43.982Z,81.73
2023-04-10T18:22:12.142Z,83.06
2023-04-10T18:24:40.033Z,83.58
2023-04-10T18:27:09.352Z,82.67
2023-04-10T18:29:37.221Z,83.91
2023-04-10T18:32:05.473Z,83.09
2023-04-10T18:34:33.578Z,83.79
2023-04-10T18:37:01.647Z,84.42
2023-04-10T18:39:29.643Z,83.78
2023-04-10T18:41:58.110Z,83.52
2023-04-10T18:44:28.946Z,83.48
2023-04-10T18:47:04.449Z,84.30
2023-04-10T18:49:33.037Z,84.59
2023-04-10T18:52:01.700Z,85.10
2023-04-10T18:54:30.301Z,85.18
2023-04-10T18:56:58.114Z,86.02
2023-04-10T18:59:28.426Z,86.29
2023-04-10T19:01:56.264Z,88.70
2023-04-10T19:04:24.561Z,87.76
2023-04-10T19:06:52.744Z,86.59
2023-04-10T19:09:20.625Z,88.02
2023-04-10T19:11:48.544Z,87.82
2023-04-10T19:14:16.558Z,88.68
2023-04-10T19:16:45.800Z,88.24
2023-04-10T19:19:13.627Z,89.14
2023-04-10T19:21:41.447Z,89.25
2023-04-10T19:24:09.391Z,89.53
2023-04-10T19:26:37.982Z,89.55
2023-04-10T19:29:05.944Z,89.79
2023-04-10T19:31:33.931Z,89.34
2023-04-10T19:34:09.002Z,88.93
2023-04-10T19:36:37.474Z,89.25
2023-04-10T19:39:06.219Z,89.69
2023-04-10T19:41:34.166Z,89.55
2023-04-10T19:44:02.063Z,90.55
2023-04-10T19:46:30.037Z,91.10
2023-04-10T19:48:58.018Z,91.29
2023-04-10T19:51:27.462Z,91.58
2023-04-10T19:53:57.484Z,91.95
2023-04-10T19:56:26.937Z,91.92
2023-04-10T19:58:54.799Z,92.80
2023-04-10T20:01:24.141Z,93.53
2023-04-10T20:03:52.357Z,94.23
2023-04-10T20:06:21.542Z,94.90
2023-04-10T20:08:50.962Z,94.59
2023-04-10T20:11:18.882Z,95.09
2023-04-10T20:13:46.765Z,94.58
2023-04-10T20:16:14.737Z,94.80
2023-04-10T20:18:42.783Z,94.67
2023-04-10T20:21:10.648Z,94.53
2023-04-10T20:23:38.840Z,94.67
2023-04-10T20:26:08.642Z,95.31
2023-04-10T20:28:36.527Z,95.16
2023-04-10T20:31:04.465Z,95.94
2023-04-10T20:33:32.660Z,95.86
2023-04-10T20:36:00.731Z,95.81
2023-04-10T20:38:28.644Z,95.81
2023-04-10T20:40:56.588Z,96.10
2023-04-10T20:43:26.730Z,95.60
2023-04-10T20:45:54.323Z,98.67
2023-04-10T20:48:22.214Z,96.63
2023-04-10T20:50:50.228Z,96.10
2023-04-10T20:53:18.112Z,95.79
2023-04-10T20:55:46.254Z,95.26
2023-04-10T20:58:14.180Z,94.48
2023-04-10T21:00:43.519Z,94.71
2023-04-10T21:03:11.812Z,95.39
2023-04-10T21:05:41.466Z,95.70
2023-04-10T21:08:09.484Z,95.47
2023-04-10T21:10:43.829Z,95.71
2023-04-10T21:13:13.022Z,96.09
2023-04-10T21:15:41.098Z,96.23
2023-04-10T21:18:10.596Z,96.01
2023-04-10T21:20:38.520Z,95.18
2023-04-10T21:23:06.519Z,96.25
2023-04-10T21:25:36.337Z,96.03
2023-04-10T21:28:04.334Z,94.89
2023-04-10T21:30:32.206Z,95.92
2023-04-10T21:33:00.167Z,95.38
2023-04-10T21:35:29.622Z,94.36
2023-04-10T21:38:01.867Z,95.31
2023-04-10T21:40:34.216Z,95.41
2023-04-10T21:43:02.381Z,94.69
2023-04-10T21:45:30.365Z,95.14
2023-04-10T21:47:59.897Z,94.74
2023-04-10T21:50:29.466Z,94.85
2023-04-10T21:52:57.480Z,93.96
2023-04-10T21:55:25.393Z,93.60
2023-04-10T21:57:53.379Z,94.91
2023-04-10T22:00:23.058Z,95.63
2023-04-10T22:02:51.824Z,95.42
2023-04-10T22:05:20.048Z,94.98
2023-04-10T22:07:49.263Z,95.74
2023-04-10T22:10:17.338Z,95.63
2023-04-10T22:12:48.467Z,95.57
2023-04-10T22:15:17.047Z,94.82
2023-04-10T22:17:44.951Z,95.78
2023-04-10T22:20:13.157Z,95.45
2023-04-10T22:22:41.051Z,96.44
2023-04-10T22:25:10.877Z,96.59
2023-04-10T22:27:38.768Z,95.75
2023-04-10T22:30:09.780Z,95.70
2023-04-10T22:32:37.975Z,96.22
2023-04-10T22:35:06.944Z,95.74
2023-04-10T22:37:34.921Z,96.25
2023-04-10T22:40:02.830Z,95.94
2023-04-10T22:42:32.173Z,95.99
2023-04-10T22:45:00.194Z,95.24
2023-04-10T22:47:28.091Z,97.12
2023-04-10T22:49:55.971Z,98.13
2023-04-10T22:52:23.809Z,97.28
2023-04-10T22:54:51.684Z,98.04
2023-04-10T22:57:20.340Z,98.76
2023-04-10T22:59:49.680Z,98.32
2023-04-10T23:02:17.757Z,97.47
2023-04-10T23:04:45.794Z,97.80
2023-04-10T23:07:13.788Z,97.96
2023-04-10T23:09:41.600Z,98.41
2023-04-10T23:12:09.571Z,100.00
2023-04-10T23:14:37.624Z,99.50
2023-04-10T23:17:06.975Z,99.88
2023-04-10T23:19:36.937Z,99.61
2023-04-10T23:22:04.847Z,100.00
2023-04-10T23:24:32.748Z,99.88
2023-04-10T23:27:00.731Z,99.03
2023-04-10T23:29:28.886Z,100.00
2023-04-10T23:31:56.813Z,100.00
2023-04-10T23:34:26.667Z,99.50
2023-04-10T23:36:54.980Z,100.00
2023-04-10T23:39:23.053Z,99.70
2023-04-10T23:41:50.952Z,100.00
2023-04-10T23:44:18.877Z,100.00
2023-04-10T23:46:46.762Z,100.00
2023-04-10T23:49:14.782Z,100.00
2023-04-10T23:51:44.920Z,100.00
2023-04-10T23:54:12.776Z,100.00
2023-04-10T23:56:40.810Z,100.00
2023-04-10T23:59:08.813Z,100.00
